sensor_id;sensor_type;location;lat;lon;timestamp;temperature;humidity
3308;DHT22;1666;48.898;9.182;2023-12-07T00:02:25;2.80;1.00
3308;DHT22;1666;48.898;9.182;2023-12-07T00:04:55;2.70;1.00
3308;DHT22;1666;48.898;9.182;2023-12-07T00:07:25;2.70;1.00
3308;DHT22;1666;48.898;9.182;2023-12-07T00:09:57;2.70;1.00
3308;DHT22;1666;48.898;9.182;2023-12-07T00:12:27;2.70;1.00
3308;DHT22;1666;48.898;9.182;2023-12-07T00:14:58;2.70;1.00
3308;DHT22;1666;48.898;9.182;2023-12-07T00:17:31;2.70;1.00
3308;DHT22;1666;48.898;9.182;2023-12-07T00:20:01;2.70;1.00
3308;DHT22;1666;48.898;9.182;2023-12-07T00:22:31;2.70;1.00
3308;DHT22;1666;48.898;9.182;2023-12-07T00:25:05;2.70;1.00
3308;DHT22;1666;48.898;9.182;2023-12-07T00:27:35;2.70;1.00
3308;DHT22;1666;48.898;9.182;2023-12-07T00:30:06;2.70;1.00
3308;DHT22;1666;48.898;9.182;2023-12-07T00:32:36;2.70;1.00
3308;DHT22;1666;48.898;9.182;2023-12-07T00:35:07;2.70;1.00
3308;DHT22;1666;48.898;9.182;2023-12-07T00:37:38;2.70;1.00
3308;DHT22;1666;48.898;9.182;2023-12-07T00:40:10;2.80;1.00
3308;DHT22;1666;48.898;9.182;2023-12-07T00:42:41;2.70;1.00
3308;DHT22;1666;48.898;9.182;2023-12-07T00:45:11;2.70;1.00
3308;DHT22;1666;48.898;9.182;2023-12-07T00:47:42;2.70;1.00
3308;DHT22;1666;48.898;9.182;2023-12-07T00:50:12;2.60;1.00
3308;DHT22;1666;48.898;9.182;2023-12-07T00:52:43;2.60;1.00
3308;DHT22;1666;48.898;9.182;2023-12-07T00:55:16;2.60;1.00
3308;DHT22;1666;48.898;9.182;2023-12-07T00:57:46;2.60;1.00
3308;DHT22;1666;48.898;9.182;2023-12-07T01:00:16;2.60;1.00
3308;DHT22;1666;48.898;9.182;2023-12-07T01:02:47;2.60;1.00
3308;DHT22;1666;48.898;9.182;2023-12-07T01:05:18;2.70;1.00
3308;DHT22;1666;48.898;9.182;2023-12-07T01:07:48;2.70;1.00
3308;DHT22;1666;48.898;9.182;2023-12-07T01:10:21;2.70;1.00
3308;DHT22;1666;48.898;9.182;2023-12-07T01:12:51;2.70;1.00
3308;DHT22;1666;48.898;9.182;2023-12-07T01:15:21;2.80;1.00
3308;DHT22;1666;48.898;9.182;2023-12-07T01:17:51;2.70;1.00
3308;DHT22;1666;48.898;9.182;2023-12-07T01:20:21;2.70;1.00
3308;DHT22;1666;48.898;9.182;2023-12-07T01:22:51;2.70;1.00
3308;DHT22;1666;48.898;9.182;2023-12-07T01:25:23;2.70;1.00
3308;DHT22;1666;48.898;9.182;2023-12-07T01:27:54;2.70;1.00
3308;DHT22;1666;48.898;9.182;2023-12-07T01:30:24;2.70;1.00
3308;DHT22;1666;48.898;9.182;2023-12-07T01:32:54;2.70;1.00
3308;DHT22;1666;48.898;9.182;2023-12-07T01:35:24;2.70;1.00
3308;DHT22;1666;48.898;9.182;2023-12-07T01:37:55;2.70;1.00
3308;DHT22;1666;48.898;9.182;2023-12-07T01:40:28;2.70;1.00
3308;DHT22;1666;48.898;9.182;2023-12-07T01:42:58;2.70;1.00
3308;DHT22;1666;48.898;9.182;2023-12-07T01:45:28;2.70;1.00
3308;DHT22;1666;48.898;9.182;2023-12-07T01:47:58;2.60;1.00
3308;DHT22;1666;48.898;9.182;2023-12-07T01:50:29;2.60;1.00
3308;DHT22;1666;48.898;9.182;2023-12-07T01:53:02;2.60;1.00
3308;DHT22;1666;48.898;9.182;2023-12-07T01:55:38;2.60;1.00
3308;DHT22;1666;48.898;9.182;2023-12-07T01:58:10;2.70;1.00
3308;DHT22;1666;48.898;9.182;2023-12-07T02:00:40;2.60;1.00
3308;DHT22;1666;48.898;9.182;2023-12-07T02:03:10;2.60;1.00
3308;DHT22;1666;48.898;9.182;2023-12-07T02:05:43;2.60;1.00
3308;DHT22;1666;48.898;9.182;2023-12-07T02:08:15;2.60;1.00
3308;DHT22;1666;48.898;9.182;2023-12-07T02:10:48;2.60;1.00
3308;DHT22;1666;48.898;9.182;2023-12-07T02:13:20;2.60;1.00
3308;DHT22;1666;48.898;9.182;2023-12-07T02:15:51;2.60;1.00
3308;DHT22;1666;48.898;9.182;2023-12-07T02:18:27;2.60;1.00
3308;DHT22;1666;48.898;9.182;2023-12-07T02:21:05;2.60;1.00
3308;DHT22;1666;48.898;9.182;2023-12-07T02:23:37;2.50;1.00
3308;DHT22;1666;48.898;9.182;2023-12-07T02:26:22;2.40;1.00
3308;DHT22;1666;48.898;9.182;2023-12-07T02:28:58;2.40;1.00
3308;DHT22;1666;48.898;9.182;2023-12-07T02:31:28;2.40;1.00
3308;DHT22;1666;48.898;9.182;2023-12-07T02:33:58;2.30;1.20
3308;DHT22;1666;48.898;9.182;2023-12-07T02:36:30;2.30;5.20
3308;DHT22;1666;48.898;9.182;2023-12-07T02:39:02;2.20;9.30
3308;DHT22;1666;48.898;9.182;2023-12-07T02:41:34;2.20;13.10
3308;DHT22;1666;48.898;9.182;2023-12-07T02:44:07;2.20;17.20
3308;DHT22;1666;48.898;9.182;2023-12-07T02:46:37;2.20;21.90
3308;DHT22;1666;48.898;9.182;2023-12-07T02:49:07;2.20;26.10
3308;DHT22;1666;48.898;9.182;2023-12-07T02:51:38;2.10;27.80
3308;DHT22;1666;48.898;9.182;2023-12-07T02:54:08;2.20;29.80
3308;DHT22;1666;48.898;9.182;2023-12-07T02:56:37;2.10;29.50
3308;DHT22;1666;48.898;9.182;2023-12-07T02:59:10;2.10;29.30
3308;DHT22;1666;48.898;9.182;2023-12-07T03:01:40;2.10;34.40
3308;DHT22;1666;48.898;9.182;2023-12-07T03:04:10;2.00;38.70
3308;DHT22;1666;48.898;9.182;2023-12-07T03:06:40;1.90;38.70
3308;DHT22;1666;48.898;9.182;2023-12-07T03:09:10;1.80;40.80
3308;DHT22;1666;48.898;9.182;2023-12-07T03:11:40;1.70;42.70
3308;DHT22;1666;48.898;9.182;2023-12-07T03:14:13;1.70;47.00
3308;DHT22;1666;48.898;9.182;2023-12-07T03:16:43;1.70;58.40
3308;DHT22;1666;48.898;9.182;2023-12-07T03:19:13;1.50;66.50
3308;DHT22;1666;48.898;9.182;2023-12-07T03:21:43;1.40;69.40
3308;DHT22;1666;48.898;9.182;2023-12-07T03:24:13;1.30;76.60
3308;DHT22;1666;48.898;9.182;2023-12-07T03:26:43;1.30;83.70
3308;DHT22;1666;48.898;9.182;2023-12-07T03:29:16;1.30;91.10
3308;DHT22;1666;48.898;9.182;2023-12-07T03:31:46;1.20;94.10
3308;DHT22;1666;48.898;9.182;2023-12-07T03:34:16;1.10;97.70
3308;DHT22;1666;48.898;9.182;2023-12-07T03:36:46;1.10;99.90
3308;DHT22;1666;48.898;9.182;2023-12-07T03:39:17;1.00;99.90
3308;DHT22;1666;48.898;9.182;2023-12-07T03:41:49;1.00;99.90
3308;DHT22;1666;48.898;9.182;2023-12-07T03:44:22;1.10;99.90
3308;DHT22;1666;48.898;9.182;2023-12-07T03:46:54;1.00;99.90
3308;DHT22;1666;48.898;9.182;2023-12-07T03:49:24;1.10;99.90
3308;DHT22;1666;48.898;9.182;2023-12-07T03:51:54;1.00;99.90
3308;DHT22;1666;48.898;9.182;2023-12-07T03:54:24;1.10;99.90
3308;DHT22;1666;48.898;9.182;2023-12-07T03:56:54;1.10;99.90
3308;DHT22;1666;48.898;9.182;2023-12-07T03:59:26;1.10;99.90
3308;DHT22;1666;48.898;9.182;2023-12-07T04:01:56;1.00;99.90
3308;DHT22;1666;48.898;9.182;2023-12-07T04:04:26;0.90;99.90
3308;DHT22;1666;48.898;9.182;2023-12-07T04:06:56;0.90;99.90
3308;DHT22;1666;48.898;9.182;2023-12-07T04:09:26;0.80;99.90
3308;DHT22;1666;48.898;9.182;2023-12-07T04:11:57;0.70;99.90
3308;DHT22;1666;48.898;9.182;2023-12-07T04:14:30;0.70;99.90
3308;DHT22;1666;48.898;9.182;2023-12-07T04:17:00;0.80;99.90
3308;DHT22;1666;48.898;9.182;2023-12-07T04:19:30;0.70;99.90
3308;DHT22;1666;48.898;9.182;2023-12-07T04:22:01;0.70;99.90
3308;DHT22;1666;48.898;9.182;2023-12-07T04:24:31;0.70;99.90
3308;DHT22;1666;48.898;9.182;2023-12-07T04:27:01;0.70;99.90
3308;DHT22;1666;48.898;9.182;2023-12-07T04:29:34;0.70;99.90
3308;DHT22;1666;48.898;9.182;2023-12-07T04:32:06;0.70;99.90
3308;DHT22;1666;48.898;9.182;2023-12-07T04:34:36;0.80;99.90
3308;DHT22;1666;48.898;9.182;2023-12-07T04:37:06;0.80;99.90
3308;DHT22;1666;48.898;9.182;2023-12-07T04:39:36;0.80;99.90
3308;DHT22;1666;48.898;9.182;2023-12-07T04:42:07;0.80;99.90
3308;DHT22;1666;48.898;9.182;2023-12-07T04:44:39;0.80;99.90
3308;DHT22;1666;48.898;9.182;2023-12-07T04:47:10;0.90;99.90
3308;DHT22;1666;48.898;9.182;2023-12-07T04:49:40;0.80;99.90
3308;DHT22;1666;48.898;9.182;2023-12-07T04:52:10;0.90;99.90
3308;DHT22;1666;48.898;9.182;2023-12-07T04:54:40;0.80;99.90
3308;DHT22;1666;48.898;9.182;2023-12-07T04:57:10;0.80;99.90
3308;DHT22;1666;48.898;9.182;2023-12-07T04:59:42;0.80;99.90
3308;DHT22;1666;48.898;9.182;2023-12-07T05:02:14;0.70;99.90
3308;DHT22;1666;48.898;9.182;2023-12-07T05:04:45;0.70;99.90
3308;DHT22;1666;48.898;9.182;2023-12-07T05:07:15;0.70;99.90
3308;DHT22;1666;48.898;9.182;2023-12-07T05:09:45;0.70;99.90
3308;DHT22;1666;48.898;9.182;2023-12-07T05:12:15;0.70;99.90
3308;DHT22;1666;48.898;9.182;2023-12-07T05:14:48;0.70;99.90
3308;DHT22;1666;48.898;9.182;2023-12-07T05:17:18;0.70;99.90
3308;DHT22;1666;48.898;9.182;2023-12-07T05:19:48;0.60;99.90
3308;DHT22;1666;48.898;9.182;2023-12-07T05:22:19;0.60;99.90
3308;DHT22;1666;48.898;9.182;2023-12-07T05:24:51;0.50;99.90
3308;DHT22;1666;48.898;9.182;2023-12-07T05:27:21;0.60;99.90
3308;DHT22;1666;48.898;9.182;2023-12-07T05:29:54;0.60;99.90
3308;DHT22;1666;48.898;9.182;2023-12-07T05:32:24;0.60;99.90
3308;DHT22;1666;48.898;9.182;2023-12-07T05:34:55;0.60;99.90
3308;DHT22;1666;48.898;9.182;2023-12-07T05:37:25;0.60;99.90
3308;DHT22;1666;48.898;9.182;2023-12-07T05:39:55;0.60;99.90
3308;DHT22;1666;48.898;9.182;2023-12-07T05:42:25;0.70;99.90
3308;DHT22;1666;48.898;9.182;2023-12-07T05:44:58;0.60;99.90
3308;DHT22;1666;48.898;9.182;2023-12-07T05:47:30;0.60;99.90
3308;DHT22;1666;48.898;9.182;2023-12-07T05:50:02;0.50;99.90
3308;DHT22;1666;48.898;9.182;2023-12-07T05:52:36;0.50;99.90
3308;DHT22;1666;48.898;9.182;2023-12-07T05:55:06;0.50;99.90
3308;DHT22;1666;48.898;9.182;2023-12-07T05:57:36;0.50;99.90
3308;DHT22;1666;48.898;9.182;2023-12-07T06:00:11;0.40;99.90
3308;DHT22;1666;48.898;9.182;2023-12-07T06:02:43;0.50;99.90
3308;DHT22;1666;48.898;9.182;2023-12-07T06:05:13;0.50;99.90
3308;DHT22;1666;48.898;9.182;2023-12-07T06:07:43;0.50;99.90
3308;DHT22;1666;48.898;9.182;2023-12-07T06:10:13;0.40;99.90
3308;DHT22;1666;48.898;9.182;2023-12-07T06:12:44;0.40;99.90
3308;DHT22;1666;48.898;9.182;2023-12-07T06:15:16;0.30;99.90
3308;DHT22;1666;48.898;9.182;2023-12-07T06:17:47;0.40;99.90
3308;DHT22;1666;48.898;9.182;2023-12-07T06:20:17;0.40;99.90
3308;DHT22;1666;48.898;9.182;2023-12-07T06:22:47;0.40;99.90
3308;DHT22;1666;48.898;9.182;2023-12-07T06:25:17;0.40;99.90
3308;DHT22;1666;48.898;9.182;2023-12-07T06:27:47;0.50;99.90
3308;DHT22;1666;48.898;9.182;2023-12-07T06:30:19;0.40;99.90
3308;DHT22;1666;48.898;9.182;2023-12-07T06:32:50;0.40;99.90
3308;DHT22;1666;48.898;9.182;2023-12-07T06:35:20;0.40;99.90
3308;DHT22;1666;48.898;9.182;2023-12-07T06:37:50;0.30;99.90
3308;DHT22;1666;48.898;9.182;2023-12-07T06:40:20;0.30;99.90
3308;DHT22;1666;48.898;9.182;2023-12-07T06:42:50;0.20;99.90
3308;DHT22;1666;48.898;9.182;2023-12-07T06:45:22;0.30;99.90
3308;DHT22;1666;48.898;9.182;2023-12-07T06:47:52;0.30;99.90
3308;DHT22;1666;48.898;9.182;2023-12-07T06:50:23;0.20;99.90
3308;DHT22;1666;48.898;9.182;2023-12-07T06:52:53;0.20;99.90
3308;DHT22;1666;48.898;9.182;2023-12-07T06:55:22;0.20;99.90
3308;DHT22;1666;48.898;9.182;2023-12-07T06:57:52;0.30;99.90
3308;DHT22;1666;48.898;9.182;2023-12-07T07:00:25;0.30;99.90
3308;DHT22;1666;48.898;9.182;2023-12-07T07:02:55;0.20;99.90
3308;DHT22;1666;48.898;9.182;2023-12-07T07:05:25;0.20;99.90
3308;DHT22;1666;48.898;9.182;2023-12-07T07:07:55;0.20;99.90
3308;DHT22;1666;48.898;9.182;2023-12-07T07:10:25;0.20;99.90
3308;DHT22;1666;48.898;9.182;2023-12-07T07:12:55;0.10;99.90
3308;DHT22;1666;48.898;9.182;2023-12-07T07:15:33;0.10;99.90
3308;DHT22;1666;48.898;9.182;2023-12-07T07:18:03;0.10;99.90
3308;DHT22;1666;48.898;9.182;2023-12-07T07:20:34;0.10;99.90
3308;DHT22;1666;48.898;9.182;2023-12-07T07:23:04;0.20;99.90
3308;DHT22;1666;48.898;9.182;2023-12-07T07:25:35;0.20;99.90
3308;DHT22;1666;48.898;9.182;2023-12-07T07:28:06;0.30;99.90
3308;DHT22;1666;48.898;9.182;2023-12-07T07:30:38;0.40;99.90
3308;DHT22;1666;48.898;9.182;2023-12-07T07:33:08;0.40;99.90
3308;DHT22;1666;48.898;9.182;2023-12-07T07:35:39;0.50;99.90
3308;DHT22;1666;48.898;9.182;2023-12-07T07:38:08;0.60;99.90
3308;DHT22;1666;48.898;9.182;2023-12-07T07:40:39;0.60;99.90
3308;DHT22;1666;48.898;9.182;2023-12-07T07:43:09;0.60;99.90
3308;DHT22;1666;48.898;9.182;2023-12-07T07:45:42;0.60;99.90
3308;DHT22;1666;48.898;9.182;2023-12-07T07:48:13;0.60;99.90
3308;DHT22;1666;48.898;9.182;2023-12-07T07:50:45;0.60;99.90
3308;DHT22;1666;48.898;9.182;2023-12-07T07:53:18;0.80;99.90
3308;DHT22;1666;48.898;9.182;2023-12-07T07:55:48;0.80;99.90
3308;DHT22;1666;48.898;9.182;2023-12-07T07:58:18;0.80;99.90
3308;DHT22;1666;48.898;9.182;2023-12-07T08:00:50;0.80;99.90
3308;DHT22;1666;48.898;9.182;2023-12-07T08:03:21;0.80;99.90
3308;DHT22;1666;48.898;9.182;2023-12-07T08:05:51;0.80;99.90
3308;DHT22;1666;48.898;9.182;2023-12-07T08:08:21;0.80;99.90
3308;DHT22;1666;48.898;9.182;2023-12-07T08:10:53;0.90;99.90
3308;DHT22;1666;48.898;9.182;2023-12-07T08:13:23;1.00;99.90
3308;DHT22;1666;48.898;9.182;2023-12-07T08:15:57;1.00;99.90
3308;DHT22;1666;48.898;9.182;2023-12-07T08:18:28;1.00;99.90
3308;DHT22;1666;48.898;9.182;2023-12-07T08:20:58;1.00;99.90
3308;DHT22;1666;48.898;9.182;2023-12-07T08:23:28;1.00;96.40
3308;DHT22;1666;48.898;9.182;2023-12-07T08:25:58;1.00;95.20
3308;DHT22;1666;48.898;9.182;2023-12-07T08:28:29;1.10;92.30
3308;DHT22;1666;48.898;9.182;2023-12-07T08:31:01;1.20;92.00
3308;DHT22;1666;48.898;9.182;2023-12-07T08:33:31;1.30;90.60
3308;DHT22;1666;48.898;9.182;2023-12-07T08:36:02;1.30;86.00
3308;DHT22;1666;48.898;9.182;2023-12-07T08:38:32;1.40;78.90
3308;DHT22;1666;48.898;9.182;2023-12-07T08:41:02;1.40;72.70
3308;DHT22;1666;48.898;9.182;2023-12-07T08:43:32;1.50;64.10
3308;DHT22;1666;48.898;9.182;2023-12-07T08:46:05;1.60;55.80
3308;DHT22;1666;48.898;9.182;2023-12-07T08:48:36;1.60;49.70
3308;DHT22;1666;48.898;9.182;2023-12-07T08:51:09;1.60;42.00
3308;DHT22;1666;48.898;9.182;2023-12-07T08:53:40;1.70;38.20
3308;DHT22;1666;48.898;9.182;2023-12-07T08:56:10;1.80;33.70
3308;DHT22;1666;48.898;9.182;2023-12-07T08:58:40;1.90;27.40
3308;DHT22;1666;48.898;9.182;2023-12-07T09:01:14;1.90;19.90
3308;DHT22;1666;48.898;9.182;2023-12-07T09:03:58;2.00;10.50
3308;DHT22;1666;48.898;9.182;2023-12-07T09:06:28;2.10;4.40
3308;DHT22;1666;48.898;9.182;2023-12-07T09:08:58;2.10;1.00
3308;DHT22;1666;48.898;9.182;2023-12-07T09:11:28;2.10;1.00
3308;DHT22;1666;48.898;9.182;2023-12-07T09:13:58;2.10;1.00
3308;DHT22;1666;48.898;9.182;2023-12-07T09:16:31;2.10;1.00
3308;DHT22;1666;48.898;9.182;2023-12-07T09:19:02;2.10;1.00
3308;DHT22;1666;48.898;9.182;2023-12-07T09:21:32;2.20;1.00
3308;DHT22;1666;48.898;9.182;2023-12-07T09:24:03;2.30;1.00
3308;DHT22;1666;48.898;9.182;2023-12-07T09:26:34;2.40;1.00
3308;DHT22;1666;48.898;9.182;2023-12-07T09:29:04;2.40;1.00
3308;DHT22;1666;48.898;9.182;2023-12-07T09:31:38;2.50;1.00
3308;DHT22;1666;48.898;9.182;2023-12-07T09:34:08;2.50;1.00
3308;DHT22;1666;48.898;9.182;2023-12-07T09:36:39;2.50;1.00
3308;DHT22;1666;48.898;9.182;2023-12-07T09:39:09;2.60;1.00
3308;DHT22;1666;48.898;9.182;2023-12-07T09:41:41;2.70;1.00
3308;DHT22;1666;48.898;9.182;2023-12-07T09:44:14;2.70;1.00
3308;DHT22;1666;48.898;9.182;2023-12-07T09:46:47;2.80;1.00
3308;DHT22;1666;48.898;9.182;2023-12-07T09:49:17;2.90;1.00
3308;DHT22;1666;48.898;9.182;2023-12-07T09:51:48;3.00;1.00
3308;DHT22;1666;48.898;9.182;2023-12-07T09:54:20;2.90;1.00
3308;DHT22;1666;48.898;9.182;2023-12-07T09:56:52;2.90;1.00
3308;DHT22;1666;48.898;9.182;2023-12-07T09:59:24;3.00;1.00
3308;DHT22;1666;48.898;9.182;2023-12-07T10:01:56;2.90;1.00
3308;DHT22;1666;48.898;9.182;2023-12-07T10:04:27;3.00;1.00
3308;DHT22;1666;48.898;9.182;2023-12-07T10:06:57;3.10;1.00
3308;DHT22;1666;48.898;9.182;2023-12-07T10:09:27;3.10;1.00
3308;DHT22;1666;48.898;9.182;2023-12-07T10:12:03;3.20;1.00
3308;DHT22;1666;48.898;9.182;2023-12-07T10:14:34;3.10;1.00
3308;DHT22;1666;48.898;9.182;2023-12-07T10:17:07;3.10;1.00
3308;DHT22;1666;48.898;9.182;2023-12-07T10:19:37;3.20;1.00
3308;DHT22;1666;48.898;9.182;2023-12-07T10:22:13;3.30;1.00
3308;DHT22;1666;48.898;9.182;2023-12-07T10:24:44;3.30;1.00
3308;DHT22;1666;48.898;9.182;2023-12-07T10:27:14;3.40;1.00
3308;DHT22;1666;48.898;9.182;2023-12-07T10:29:45;3.50;1.00
3308;DHT22;1666;48.898;9.182;2023-12-07T10:32:18;3.60;1.00
3308;DHT22;1666;48.898;9.182;2023-12-07T10:34:49;3.50;1.00
3308;DHT22;1666;48.898;9.182;2023-12-07T10:37:19;3.60;1.00
3308;DHT22;1666;48.898;9.182;2023-12-07T10:39:49;3.70;1.00
3308;DHT22;1666;48.898;9.182;2023-12-07T10:42:23;3.60;1.00
3308;DHT22;1666;48.898;9.182;2023-12-07T10:44:54;3.60;1.00
3308;DHT22;1666;48.898;9.182;2023-12-07T10:47:32;3.70;1.00
3308;DHT22;1666;48.898;9.182;2023-12-07T10:50:06;3.80;1.00
3308;DHT22;1666;48.898;9.182;2023-12-07T10:52:44;3.90;1.00
3308;DHT22;1666;48.898;9.182;2023-12-07T10:55:16;3.90;1.00
3308;DHT22;1666;48.898;9.182;2023-12-07T10:57:48;4.00;1.00
3308;DHT22;1666;48.898;9.182;2023-12-07T11:00:18;4.10;1.00
3308;DHT22;1666;48.898;9.182;2023-12-07T11:03:09;4.10;1.00
3308;DHT22;1666;48.898;9.182;2023-12-07T11:05:40;4.10;1.00
3308;DHT22;1666;48.898;9.182;2023-12-07T11:08:15;4.10;1.00
3308;DHT22;1666;48.898;9.182;2023-12-07T11:10:53;4.20;1.00
3308;DHT22;1666;48.898;9.182;2023-12-07T11:13:28;4.20;1.00
3308;DHT22;1666;48.898;9.182;2023-12-07T11:15:59;4.20;1.00
3308;DHT22;1666;48.898;9.182;2023-12-07T11:18:32;4.20;1.00
3308;DHT22;1666;48.898;9.182;2023-12-07T11:21:03;4.30;1.00
3308;DHT22;1666;48.898;9.182;2023-12-07T11:23:33;4.30;1.00
3308;DHT22;1666;48.898;9.182;2023-12-07T11:26:03;4.30;1.00
3308;DHT22;1666;48.898;9.182;2023-12-07T11:28:38;4.30;1.00
3308;DHT22;1666;48.898;9.182;2023-12-07T11:31:08;4.40;1.00
3308;DHT22;1666;48.898;9.182;2023-12-07T11:33:41;4.30;1.00
3308;DHT22;1666;48.898;9.182;2023-12-07T11:36:13;4.40;1.00
3308;DHT22;1666;48.898;9.182;2023-12-07T11:41:54;4.50;1.00
3308;DHT22;1666;48.898;9.182;2023-12-07T11:44:33;4.60;1.00
3308;DHT22;1666;48.898;9.182;2023-12-07T11:47:03;4.60;1.00
3308;DHT22;1666;48.898;9.182;2023-12-07T11:49:36;4.50;1.00
3308;DHT22;1666;48.898;9.182;2023-12-07T11:52:13;4.50;1.00
3308;DHT22;1666;48.898;9.182;2023-12-07T11:54:44;4.60;1.00
3308;DHT22;1666;48.898;9.182;2023-12-07T11:57:15;4.60;1.00
3308;DHT22;1666;48.898;9.182;2023-12-07T11:59:46;4.60;1.00
3308;DHT22;1666;48.898;9.182;2023-12-07T12:02:17;4.60;1.00
3308;DHT22;1666;48.898;9.182;2023-12-07T12:04:50;4.60;1.00
3308;DHT22;1666;48.898;9.182;2023-12-07T12:07:24;4.70;1.00
3308;DHT22;1666;48.898;9.182;2023-12-07T12:09:54;4.70;1.00
3308;DHT22;1666;48.898;9.182;2023-12-07T12:12:27;4.70;1.00
3308;DHT22;1666;48.898;9.182;2023-12-07T12:14:57;4.70;1.00
3308;DHT22;1666;48.898;9.182;2023-12-07T12:17:28;4.70;1.00
3308;DHT22;1666;48.898;9.182;2023-12-07T12:20:01;4.70;1.00
3308;DHT22;1666;48.898;9.182;2023-12-07T12:22:31;4.70;1.00
3308;DHT22;1666;48.898;9.182;2023-12-07T12:25:02;4.70;1.00
3308;DHT22;1666;48.898;9.182;2023-12-07T12:27:32;4.60;1.00
3308;DHT22;1666;48.898;9.182;2023-12-07T12:30:04;4.60;1.00
3308;DHT22;1666;48.898;9.182;2023-12-07T12:32:42;4.60;1.00
3308;DHT22;1666;48.898;9.182;2023-12-07T12:35:15;4.60;1.00
3308;DHT22;1666;48.898;9.182;2023-12-07T12:37:46;4.70;1.00
3308;DHT22;1666;48.898;9.182;2023-12-07T12:40:18;4.70;1.00
3308;DHT22;1666;48.898;9.182;2023-12-07T12:42:50;4.60;1.00
3308;DHT22;1666;48.898;9.182;2023-12-07T12:45:24;4.70;1.00
3308;DHT22;1666;48.898;9.182;2023-12-07T12:47:54;4.80;1.00
3308;DHT22;1666;48.898;9.182;2023-12-07T12:50:37;4.70;1.00
3308;DHT22;1666;48.898;9.182;2023-12-07T12:53:08;4.70;1.00
3308;DHT22;1666;48.898;9.182;2023-12-07T12:55:37;4.70;1.00
3308;DHT22;1666;48.898;9.182;2023-12-07T12:58:09;4.70;1.00
3308;DHT22;1666;48.898;9.182;2023-12-07T13:00:40;4.70;1.00
3308;DHT22;1666;48.898;9.182;2023-12-07T13:03:11;4.70;1.00
3308;DHT22;1666;48.898;9.182;2023-12-07T13:05:44;4.70;1.00
3308;DHT22;1666;48.898;9.182;2023-12-07T13:08:15;4.80;1.00
3308;DHT22;1666;48.898;9.182;2023-12-07T13:10:45;4.80;1.00
3308;DHT22;1666;48.898;9.182;2023-12-07T13:13:15;4.80;1.00
3308;DHT22;1666;48.898;9.182;2023-12-07T13:15:46;4.90;1.00
3308;DHT22;1666;48.898;9.182;2023-12-07T13:18:16;4.90;1.00
3308;DHT22;1666;48.898;9.182;2023-12-07T13:20:49;4.80;1.00
3308;DHT22;1666;48.898;9.182;2023-12-07T13:23:22;4.90;1.00
3308;DHT22;1666;48.898;9.182;2023-12-07T13:25:52;4.90;1.00
3308;DHT22;1666;48.898;9.182;2023-12-07T13:28:22;4.90;1.00
3308;DHT22;1666;48.898;9.182;2023-12-07T13:30:52;4.80;1.00
3308;DHT22;1666;48.898;9.182;2023-12-07T13:33:23;4.80;1.00
3308;DHT22;1666;48.898;9.182;2023-12-07T13:36:01;4.90;1.00
3308;DHT22;1666;48.898;9.182;2023-12-07T13:38:33;4.80;1.00
3308;DHT22;1666;48.898;9.182;2023-12-07T13:41:04;4.70;1.00
3308;DHT22;1666;48.898;9.182;2023-12-07T13:43:34;4.70;1.00
3308;DHT22;1666;48.898;9.182;2023-12-07T13:46:04;4.70;1.00
3308;DHT22;1666;48.898;9.182;2023-12-07T13:48:34;4.70;1.00
3308;DHT22;1666;48.898;9.182;2023-12-07T13:51:07;4.70;1.00
3308;DHT22;1666;48.898;9.182;2023-12-07T13:53:37;4.60;1.00
3308;DHT22;1666;48.898;9.182;2023-12-07T13:56:08;4.70;1.00
3308;DHT22;1666;48.898;9.182;2023-12-07T13:58:38;4.80;1.00
3308;DHT22;1666;48.898;9.182;2023-12-07T14:01:08;4.80;1.00
3308;DHT22;1666;48.898;9.182;2023-12-07T14:03:39;4.80;1.00
3308;DHT22;1666;48.898;9.182;2023-12-07T14:06:11;4.90;1.00
3308;DHT22;1666;48.898;9.182;2023-12-07T14:08:53;4.90;1.00
3308;DHT22;1666;48.898;9.182;2023-12-07T14:11:23;5.00;1.00
3308;DHT22;1666;48.898;9.182;2023-12-07T14:13:54;5.00;1.00
3308;DHT22;1666;48.898;9.182;2023-12-07T14:16:24;5.10;1.00
3308;DHT22;1666;48.898;9.182;2023-12-07T14:19:13;5.00;1.00
3308;DHT22;1666;48.898;9.182;2023-12-07T14:22:06;5.00;1.00
3308;DHT22;1666;48.898;9.182;2023-12-07T14:24:37;4.90;1.00
3308;DHT22;1666;48.898;9.182;2023-12-07T14:27:07;4.90;1.00
3308;DHT22;1666;48.898;9.182;2023-12-07T14:29:39;4.80;1.00
3308;DHT22;1666;48.898;9.182;2023-12-07T14:32:09;4.80;1.00
3308;DHT22;1666;48.898;9.182;2023-12-07T14:34:39;4.70;1.00
3308;DHT22;1666;48.898;9.182;2023-12-07T14:37:12;4.60;1.00
3308;DHT22;1666;48.898;9.182;2023-12-07T14:39:42;4.60;1.00
3308;DHT22;1666;48.898;9.182;2023-12-07T14:42:12;4.50;1.00
3308;DHT22;1666;48.898;9.182;2023-12-07T14:44:43;4.40;1.00
3308;DHT22;1666;48.898;9.182;2023-12-07T14:47:13;4.40;1.00
3308;DHT22;1666;48.898;9.182;2023-12-07T14:49:43;4.40;1.00
3308;DHT22;1666;48.898;9.182;2023-12-07T14:52:16;4.50;1.00
3308;DHT22;1666;48.898;9.182;2023-12-07T14:54:46;4.50;1.00
3308;DHT22;1666;48.898;9.182;2023-12-07T14:57:16;4.30;1.00
3308;DHT22;1666;48.898;9.182;2023-12-07T14:59:46;4.20;1.00
3308;DHT22;1666;48.898;9.182;2023-12-07T15:02:16;4.20;1.00
3308;DHT22;1666;48.898;9.182;2023-12-07T15:04:46;4.20;1.00
3308;DHT22;1666;48.898;9.182;2023-12-07T15:07:19;4.20;1.00
3308;DHT22;1666;48.898;9.182;2023-12-07T15:09:49;4.10;1.00
3308;DHT22;1666;48.898;9.182;2023-12-07T15:12:19;4.00;1.00
3308;DHT22;1666;48.898;9.182;2023-12-07T15:14:55;4.00;1.00
3308;DHT22;1666;48.898;9.182;2023-12-07T15:17:25;3.90;1.00
3308;DHT22;1666;48.898;9.182;2023-12-07T15:19:56;3.90;1.00
3308;DHT22;1666;48.898;9.182;2023-12-07T15:22:28;3.80;1.00
3308;DHT22;1666;48.898;9.182;2023-12-07T15:24:59;3.70;1.00
3308;DHT22;1666;48.898;9.182;2023-12-07T15:27:31;3.70;1.00
3308;DHT22;1666;48.898;9.182;2023-12-07T15:30:02;3.60;1.00
3308;DHT22;1666;48.898;9.182;2023-12-07T15:32:37;3.70;1.00
3308;DHT22;1666;48.898;9.182;2023-12-07T15:35:08;3.70;1.00
3308;DHT22;1666;48.898;9.182;2023-12-07T15:37:41;3.60;1.00
3308;DHT22;1666;48.898;9.182;2023-12-07T15:40:11;3.50;1.00
3308;DHT22;1666;48.898;9.182;2023-12-07T15:42:41;3.50;1.00
3308;DHT22;1666;48.898;9.182;2023-12-07T15:45:11;3.40;1.00
3308;DHT22;1666;48.898;9.182;2023-12-07T15:47:41;3.40;1.00
3308;DHT22;1666;48.898;9.182;2023-12-07T15:50:12;3.30;1.00
3308;DHT22;1666;48.898;9.182;2023-12-07T15:52:44;3.30;1.00
3308;DHT22;1666;48.898;9.182;2023-12-07T15:55:15;3.30;1.00
3308;DHT22;1666;48.898;9.182;2023-12-07T15:57:45;3.30;1.00
3308;DHT22;1666;48.898;9.182;2023-12-07T16:00:16;3.10;1.00
3308;DHT22;1666;48.898;9.182;2023-12-07T16:02:46;3.10;1.00
3308;DHT22;1666;48.898;9.182;2023-12-07T16:05:16;3.10;1.00
3308;DHT22;1666;48.898;9.182;2023-12-07T16:07:50;3.10;1.00
3308;DHT22;1666;48.898;9.182;2023-12-07T16:10:20;3.00;1.00
3308;DHT22;1666;48.898;9.182;2023-12-07T16:12:50;3.00;1.00
3308;DHT22;1666;48.898;9.182;2023-12-07T16:15:20;2.90;1.00
3308;DHT22;1666;48.898;9.182;2023-12-07T16:17:50;2.80;1.00
3308;DHT22;1666;48.898;9.182;2023-12-07T16:20:20;2.90;1.00
3308;DHT22;1666;48.898;9.182;2023-12-07T16:22:52;2.80;1.00
3308;DHT22;1666;48.898;9.182;2023-12-07T16:25:23;2.70;1.00
3308;DHT22;1666;48.898;9.182;2023-12-07T16:27:53;2.80;1.00
3308;DHT22;1666;48.898;9.182;2023-12-07T16:30:23;2.70;1.00
3308;DHT22;1666;48.898;9.182;2023-12-07T16:33:00;2.70;1.00
3308;DHT22;1666;48.898;9.182;2023-12-07T16:35:30;2.70;1.00
3308;DHT22;1666;48.898;9.182;2023-12-07T16:38:03;2.70;1.00
3308;DHT22;1666;48.898;9.182;2023-12-07T16:40:33;2.60;1.00
3308;DHT22;1666;48.898;9.182;2023-12-07T16:43:03;2.60;1.00
3308;DHT22;1666;48.898;9.182;2023-12-07T16:45:34;2.70;1.00
3308;DHT22;1666;48.898;9.182;2023-12-07T16:48:04;2.60;1.00
3308;DHT22;1666;48.898;9.182;2023-12-07T16:50:35;2.50;1.00
3308;DHT22;1666;48.898;9.182;2023-12-07T16:53:07;2.60;1.00
3308;DHT22;1666;48.898;9.182;2023-12-07T16:55:40;2.70;1.00
3308;DHT22;1666;48.898;9.182;2023-12-07T16:58:12;2.60;1.00
3308;DHT22;1666;48.898;9.182;2023-12-07T17:00:53;2.60;1.00